createdAt,value
2023-05-06T00:01:10.393Z,97511.91
2023-05-06T00:03:37.297Z,97513.50
2023-05-06T00:06:06.361Z,97515.13
2023-05-06T00:08:33.090Z,97508.63
2023-05-06T00:11:00.030Z,97498.94
2023-05-06T00:13:26.676Z,97500.28
2023-05-06T00:15:53.744Z,97515.13
2023-05-06T00:18:22.486Z,97509.19
2023-05-06T00:20:49.418Z,97504.09
2023-05-06T00:23:16.417Z,97500.31
2023-05-06T00:25:43.095Z,97508.69
2023-05-06T00:28:09.657Z,97505.75
2023-05-06T00:30:36.354Z,97506.00
2023-05-06T00:33:03.513Z,97503.28
2023-05-06T00:35:30.743Z,97491.19
2023-05-06T00:38:14.399Z,97498.47
2023-05-06T00:40:41.445Z,97495.00
2023-05-06T00:43:08.224Z,97497.97
2023-05-06T00:45:35.988Z,97499.63
2023-05-06T00:48:04.565Z,97504.28
2023-05-06T00:50:33.414Z,97499.41
2023-05-06T00:53:03.257Z,97502.16
2023-05-06T00:55:31.251Z,97502.72
2023-05-06T00:57:58.297Z,97503.00
2023-05-06T01:00:25.258Z,97504.66
2023-05-06T01:02:52.017Z,97498.19
2023-05-06T01:05:24.022Z,97503.06
2023-05-06T01:07:59.926Z,97495.25
2023-05-06T01:10:46.744Z,97496.34
2023-05-06T01:13:37.362Z,97497.16
2023-05-06T01:16:06.238Z,97507.44
2023-05-06T01:18:33.722Z,97498.53
2023-05-06T01:21:02.061Z,97497.72
2023-05-06T01:23:28.696Z,97502.59
2023-05-06T01:25:55.431Z,97500.97
2023-05-06T01:28:22.370Z,97501.25
2023-05-06T01:30:54.898Z,97503.97
2023-05-06T01:33:46.751Z,97509.38
2023-05-06T01:36:20.498Z,97498.34
2023-05-06T01:38:50.097Z,97506.97
2023-05-06T01:41:17.966Z,97505.63
2023-05-06T01:43:47.574Z,97506.44
2023-05-06T01:46:22.416Z,97506.72
2023-05-06T01:48:55.227Z,97499.69
2023-05-06T01:51:22.905Z,97500.50
2023-05-06T01:53:49.728Z,97509.69
2023-05-06T01:56:17.604Z,97502.66
2023-05-06T01:58:44.284Z,97512.66
2023-05-06T02:01:11.196Z,97516.16
2023-05-06T02:03:37.927Z,97514.81
2023-05-06T02:06:04.908Z,97513.19
2023-05-06T02:08:31.835Z,97512.66
2023-05-06T02:10:58.440Z,97505.63
2023-05-06T02:13:25.199Z,97512.91
2023-05-06T02:15:55.186Z,97512.63
2023-05-06T02:18:22.209Z,97502.91
2023-05-06T02:20:49.017Z,97514.25
2023-05-06T02:23:15.752Z,97508.56
2023-05-06T02:25:43.232Z,97505.03
2023-05-06T02:28:14.420Z,97514.75
2023-05-06T02:30:41.258Z,97506.66
2023-05-06T02:33:07.975Z,97505.28
2023-05-06T02:35:34.946Z,97503.13
2023-05-06T02:38:01.739Z,97505.28
2023-05-06T02:40:28.317Z,97503.66
2023-05-06T02:42:54.922Z,97515.00
2023-05-06T02:45:21.922Z,97507.41
2023-05-06T02:47:48.632Z,97509.56
2023-05-06T02:50:16.928Z,97511.69
2023-05-06T02:52:45.111Z,97513.31
2023-05-06T02:55:11.825Z,97515.72
2023-05-06T02:57:38.579Z,97512.22
2023-05-06T03:00:06.736Z,97516.75
2023-05-06T03:02:33.544Z,97510.00
2023-05-06T03:05:00.193Z,97519.72
2023-05-06T03:07:27.170Z,97515.09
2023-05-06T03:09:53.828Z,97516.47
2023-05-06T03:12:20.687Z,97517.50
2023-05-06T03:14:47.649Z,97523.47
2023-05-06T03:17:14.383Z,97525.59
2023-05-06T03:19:41.040Z,97508.31
2023-05-06T03:22:08.169Z,97524.78
2023-05-06T03:24:34.847Z,97524.25
2023-05-06T03:27:01.854Z,97519.63
2023-05-06T03:29:28.644Z,97525.53
2023-05-06T03:31:58.401Z,97524.44
2023-05-06T03:34:25.318Z,97535.28
2023-05-06T03:36:52.036Z,97526.88
2023-05-06T03:39:18.615Z,97538.50
2023-05-06T03:41:45.667Z,97523.91
2023-05-06T03:44:12.631Z,97538.78
2023-05-06T03:46:40.216Z,97530.69
2023-05-06T03:49:07.222Z,97530.94
2023-05-06T03:51:34.376Z,97537.97
2023-05-06T03:54:01.932Z,97538.78
2023-05-06T03:56:28.605Z,97536.56
2023-05-06T03:58:55.487Z,97536.09
2023-05-06T04:01:22.235Z,97538.25
2023-05-06T04:03:48.893Z,97541.25
2023-05-06T04:06:16.088Z,97541.25
2023-05-06T04:08:42.737Z,97535.34
2023-05-06T04:11:09.292Z,97540.75
2023-05-06T04:13:36.338Z,97549.41
2023-05-06T04:16:04.054Z,97541.84
2023-05-06T04:18:31.671Z,97543.44
2023-05-06T04:23:27.996Z,97540.00
2023-05-06T04:25:54.738Z,97552.69
2023-05-06T04:28:22.164Z,97549.47
2023-05-06T04:30:48.811Z,97548.13
2023-05-06T04:33:15.970Z,97545.44
2023-05-06T04:35:53.877Z,97552.78
2023-05-06T04:38:25.882Z,97551.97
2023-05-06T04:40:52.845Z,97539.81
2023-05-06T04:43:19.826Z,97554.44
2023-05-06T04:45:49.447Z,97558.50
2023-05-06T04:48:18.419Z,97545.81
2023-05-06T04:50:45.619Z,97557.72
2023-05-06T04:53:14.383Z,97562.03
2023-05-06T04:55:40.998Z,97568.00
2023-05-06T04:58:08.068Z,97559.13
2023-05-06T05:00:35.088Z,97562.09
2023-05-06T05:03:02.221Z,97562.09
2023-05-06T05:05:29.337Z,97558.31
2023-05-06T05:07:56.669Z,97562.09
2023-05-06T05:10:23.279Z,97557.81
2023-05-06T05:12:50.126Z,97559.41
2023-05-06T05:15:17.103Z,97567.53
2023-05-06T05:17:44.594Z,97570.47
2023-05-06T05:20:11.598Z,97565.34
2023-05-06T05:22:38.458Z,97568.59
2023-05-06T05:25:07.758Z,97571.28
2023-05-06T05:27:35.207Z,97573.72
2023-05-06T05:30:02.024Z,97574.50
2023-05-06T05:32:28.658Z,97580.47
2023-05-06T05:34:55.699Z,97579.91
2023-05-06T05:37:22.405Z,97585.81
2023-05-06T05:39:49.108Z,97578.19
2023-05-06T05:42:16.099Z,97580.31
2023-05-06T05:44:42.781Z,97578.09
2023-05-06T05:47:09.359Z,97556.69
2023-05-06T05:49:36.334Z,97569.34
2023-05-06T05:52:03.127Z,97569.31
2023-05-06T05:54:29.865Z,97565.72
2023-05-06T05:56:56.750Z,97577.28
2023-05-06T05:59:23.489Z,97567.47
2023-05-06T06:01:50.087Z,97565.75
2023-05-06T06:04:17.036Z,97553.50
2023-05-06T06:06:43.874Z,97559.59
2023-05-06T06:09:11.129Z,97564.03
2023-05-06T06:11:38.004Z,97562.00
2023-05-06T06:14:04.742Z,97564.81
2023-05-06T06:16:32.957Z,97561.13
2023-05-06T06:19:00.140Z,97558.19
2023-05-06T06:21:27.741Z,97561.75
2023-05-06T06:23:54.352Z,97559.88
2023-05-06T06:26:21.448Z,97550.66
2023-05-06T06:28:48.235Z,97551.16
2023-05-06T06:31:14.967Z,97551.34
2023-05-06T06:33:41.866Z,97565.03
2023-05-06T06:36:08.855Z,97555.91
2023-05-06T06:38:35.817Z,97560.81
2023-05-06T06:41:02.578Z,97543.03
2023-05-06T06:43:29.317Z,97549.66
2023-05-06T06:45:56.447Z,97542.97
2023-05-06T06:48:25.134Z,97544.41
2023-05-06T06:50:52.160Z,97550.38
2023-05-06T06:53:18.750Z,97536.72
2023-05-06T06:55:45.889Z,97542.47
2023-05-06T06:58:12.654Z,97552.22
2023-05-06T07:00:39.299Z,97555.13
2023-05-06T07:03:06.185Z,97549.53
2023-05-06T07:05:32.989Z,97554.34
2023-05-06T07:07:59.610Z,97550.13
2023-05-06T07:10:26.849Z,97559.72
2023-05-06T07:12:54.259Z,97546.13
2023-05-06T07:15:21.076Z,97556.03
2023-05-06T07:17:48.006Z,97556.03
2023-05-06T07:20:16.358Z,97557.53
2023-05-06T07:22:43.773Z,97558.25
2023-05-06T07:25:11.064Z,97564.56
2023-05-06T07:27:38.218Z,97557.00
2023-05-06T07:30:05.473Z,97547.56
2023-05-06T07:32:32.346Z,97566.72
2023-05-06T07:34:59.066Z,97564.19
2023-05-06T07:37:25.702Z,97570.50
2023-05-06T07:39:52.854Z,97559.53
2023-05-06T07:42:19.693Z,97560.94
2023-05-06T07:44:46.311Z,97563.66
2023-05-06T07:47:17.672Z,97552.75
2023-05-06T07:49:44.353Z,97551.59
2023-05-06T07:52:11.080Z,97559.59
2023-05-06T07:54:37.868Z,97547.06
2023-05-06T07:57:04.978Z,97545.56
2023-05-06T07:59:31.555Z,97552.41
2023-05-06T08:01:58.285Z,97543.44
2023-05-06T08:04:25.046Z,97544.53
2023-05-06T08:06:52.196Z,97550.47
2023-05-06T08:09:23.096Z,97553.69
2023-05-06T08:11:50.782Z,97554.84
2023-05-06T08:14:17.371Z,97555.91
2023-05-06T08:16:44.083Z,97548.03
2023-05-06T08:19:10.700Z,97556.34
2023-05-06T08:21:37.351Z,97543.78
2023-05-06T08:24:04.458Z,97547.28
2023-05-06T08:26:31.118Z,97563.63
2023-05-06T08:28:58.868Z,97565.19
2023-05-06T08:31:25.452Z,97550.81
2023-05-06T08:33:54.420Z,97557.06
2023-05-06T08:36:22.177Z,97550.44
2023-05-06T08:38:51.055Z,97551.00
2023-05-06T08:41:19.404Z,97554.34
2023-05-06T08:43:47.901Z,97547.44
2023-05-06T08:46:15.232Z,97546.44
2023-05-06T08:48:42.128Z,97549.06
2023-05-06T08:51:09.436Z,97548.50
2023-05-06T08:53:36.604Z,97540.41
2023-05-06T08:56:08.845Z,97525.75
2023-05-06T08:58:38.788Z,97534.72
2023-05-06T09:01:06.242Z,97535.88
2023-05-06T09:03:32.944Z,97544.31
2023-05-06T09:05:59.976Z,97542.22
2023-05-06T09:08:26.640Z,97540.44
2023-05-06T09:10:53.213Z,97530.63
2023-05-06T09:13:20.155Z,97533.47
2023-05-06T09:15:48.639Z,97532.88
2023-05-06T09:18:16.572Z,97540.81
2023-05-06T09:20:46.533Z,97530.28
2023-05-06T09:23:15.359Z,97530.88
2023-05-06T09:25:43.779Z,97540.66
2023-05-06T09:28:11.766Z,97533.28
2023-05-06T09:30:43.563Z,97530.13
2023-05-06T09:33:11.475Z,97535.84
2023-05-06T09:35:42.949Z,97535.06
2023-05-06T09:38:10.742Z,97528.09
2023-05-06T09:40:39.164Z,97520.84
2023-05-06T09:43:06.289Z,97514.81
2023-05-06T09:45:33.348Z,97519.72
2023-05-06T09:48:01.197Z,97519.28
2023-05-06T09:50:28.464Z,97501.25
2023-05-06T09:52:56.275Z,97502.34
2023-05-06T09:55:29.682Z,97503.00
2023-05-06T09:57:58.317Z,97498.97
2023-05-06T10:00:28.442Z,97499.25
2023-05-06T10:02:56.067Z,97502.31
2023-05-06T10:05:25.792Z,97501.78
2023-05-06T10:07:53.545Z,97499.03
2023-05-06T10:10:22.318Z,97502.50
2023-05-06T10:12:50.747Z,97488.78
2023-05-06T10:15:17.588Z,97480.00
2023-05-06T10:17:48.478Z,97493.88
2023-05-06T10:20:17.489Z,97483.06
2023-05-06T10:22:47.425Z,97471.53
2023-05-06T10:25:23.886Z,97477.38
2023-05-06T10:27:51.265Z,97478.38
2023-05-06T10:30:19.786Z,97463.53
2023-05-06T10:32:47.031Z,97464.69
2023-05-06T10:35:27.747Z,97467.56
2023-05-06T10:37:57.035Z,97458.88
2023-05-06T10:40:24.434Z,97467.69
2023-05-06T10:42:51.524Z,97462.22
2023-05-06T10:45:18.667Z,97463.06
2023-05-06T10:47:57.804Z,97470.84
2023-05-06T10:50:26.434Z,97469.66
2023-05-06T10:52:59.459Z,97467.41
2023-05-06T10:55:32.142Z,97461.25
2023-05-06T10:58:04.643Z,97468.81
2023-05-06T11:00:32.904Z,97458.03
2023-05-06T11:03:06.534Z,97462.22
2023-05-06T11:05:48.249Z,97457.50
2023-05-06T11:08:15.849Z,97462.41
2023-05-06T11:10:42.771Z,97448.91
2023-05-06T11:13:24.962Z,97453.91
2023-05-06T11:15:52.444Z,97450.84
2023-05-06T11:18:24.910Z,97450.84
2023-05-06T11:21:12.849Z,97449.38
2023-05-06T11:23:42.740Z,97456.16
2023-05-06T11:26:11.267Z,97446.00
2023-05-06T11:28:49.353Z,97437.41
2023-05-06T11:31:17.004Z,97446.13
2023-05-06T11:33:52.755Z,97432.16
2023-05-06T11:36:21.370Z,97432.41
2023-05-06T11:38:51.192Z,97434.13
2023-05-06T11:41:18.997Z,97432.94
2023-05-06T11:43:53.857Z,97440.06
2023-05-06T11:46:22.187Z,97434.47
2023-05-06T11:48:50.454Z,97424.66
2023-05-06T11:51:22.683Z,97425.50
2023-05-06T11:53:49.608Z,97425.84
2023-05-06T11:56:16.322Z,97423.94
2023-05-06T11:58:43.315Z,97421.13
2023-05-06T12:01:09.993Z,97429.44
2023-05-06T12:03:36.788Z,97431.47
2023-05-06T12:06:03.816Z,97423.44
2023-05-06T12:08:33.427Z,97425.59
2023-05-06T12:11:02.547Z,97423.06
2023-05-06T12:13:30.088Z,97411.50
2023-05-06T12:15:59.645Z,97430.63
2023-05-06T12:18:27.287Z,97417.56
2023-05-06T12:20:55.177Z,97420.84
2023-05-06T12:23:25.072Z,97423.34
2023-05-06T12:26:06.269Z,97415.94
2023-05-06T12:28:36.354Z,97403.41
2023-05-06T12:31:22.527Z,97408.28
2023-05-06T12:33:50.722Z,97403.56
2023-05-06T12:36:18.470Z,97406.41
2023-05-06T12:39:00.153Z,97403.91
2023-05-06T12:41:56.113Z,97410.44
2023-05-06T12:44:37.171Z,97404.91
2023-05-06T12:47:09.073Z,97399.84
2023-05-06T12:49:49.579Z,97407.91
2023-05-06T12:52:17.682Z,97388.78
2023-05-06T12:54:44.618Z,97391.19
2023-05-06T12:57:11.634Z,97339.91
2023-05-06T12:59:39.077Z,97391.91
2023-05-06T13:02:06.448Z,97383.19
2023-05-06T13:04:33.470Z,97382.06
2023-05-06T13:07:00.152Z,97394.19
2023-05-06T13:09:27.023Z,97378.19
2023-05-06T13:11:54.155Z,97371.63
2023-05-06T13:14:21.936Z,97365.03
2023-05-06T13:16:49.758Z,97370.56
2023-05-06T13:21:46.742Z,97377.59
2023-05-06T13:24:13.335Z,97372.09
2023-05-06T13:26:40.299Z,97374.69
2023-05-06T13:29:07.104Z,97369.09
2023-05-06T13:31:34.871Z,97368.31
2023-05-06T13:34:01.824Z,97361.38
2023-05-06T13:36:28.636Z,97370.97
2023-05-06T13:38:55.784Z,97365.97
2023-05-06T13:41:22.553Z,97366.59
2023-05-06T13:43:49.679Z,97364.81
2023-05-06T13:46:16.421Z,97371.03
2023-05-06T13:48:43.374Z,97346.16
2023-05-06T13:51:10.007Z,97357.16
2023-05-06T13:53:36.646Z,97362.22
2023-05-06T13:56:03.582Z,97357.88
2023-05-06T13:58:31.071Z,97355.97
2023-05-06T14:00:57.645Z,97354.03
2023-05-06T14:03:24.426Z,97360.66
2023-05-06T14:05:51.772Z,97355.06
2023-05-06T14:08:18.465Z,97357.59
2023-05-06T14:13:12.409Z,97360.66
2023-05-06T14:15:38.983Z,97352.22
2023-05-06T14:18:06.181Z,97346.88
2023-05-06T14:20:32.922Z,97350.59
2023-05-06T14:22:59.541Z,97346.03
2023-05-06T14:25:27.003Z,97348.47
2023-05-06T14:27:54.485Z,97353.44
2023-05-06T14:30:21.790Z,97352.56
2023-05-06T14:32:48.866Z,97348.59
2023-05-06T14:35:15.505Z,97351.00
2023-05-06T14:37:42.089Z,97347.94
2023-05-06T14:40:10.266Z,97351.69
2023-05-06T14:42:37.248Z,97349.44
2023-05-06T14:45:04.627Z,97351.34
2023-05-06T14:47:31.665Z,97355.13
2023-05-06T14:49:58.508Z,97353.44
2023-05-06T14:52:25.529Z,97342.44
2023-05-06T14:54:52.727Z,97339.94
2023-05-06T14:57:19.359Z,97338.97
2023-05-06T14:59:46.181Z,97336.47
2023-05-06T15:02:13.164Z,97336.00
2023-05-06T15:04:39.822Z,97337.16
2023-05-06T15:07:06.418Z,97341.97
2023-05-06T15:09:33.147Z,97326.88
2023-05-06T15:12:00.532Z,97328.22
2023-05-06T15:14:27.162Z,97319.78
2023-05-06T15:16:57.136Z,97325.13
2023-05-06T15:19:24.218Z,97323.88
2023-05-06T15:21:51.052Z,97323.78
2023-05-06T15:24:18.227Z,97324.34
2023-05-06T15:26:44.930Z,97319.06
2023-05-06T15:29:11.655Z,97321.09
2023-05-06T15:31:41.082Z,97321.91
2023-05-06T15:34:10.632Z,97312.16
2023-05-06T15:36:37.724Z,97292.06
2023-05-06T15:39:04.918Z,97319.59
2023-05-06T15:41:32.933Z,97314.00
2023-05-06T15:44:01.220Z,97316.75
2023-05-06T15:46:29.246Z,97308.19
2023-05-06T15:49:17.449Z,97326.19
2023-05-06T15:51:43.766Z,97308.97
2023-05-06T15:54:10.452Z,97308.66
2023-05-06T15:56:41.033Z,97315.41
2023-05-06T15:59:08.809Z,97320.00
2023-05-06T16:02:19.060Z,97324.91
2023-05-06T16:04:23.027Z,97313.25
2023-05-06T16:06:49.931Z,97314.63
2023-05-06T16:09:16.582Z,97315.31
2023-05-06T16:11:43.416Z,97308.34
2023-05-06T16:14:10.038Z,97316.09
2023-05-06T16:16:36.839Z,97321.00
2023-05-06T16:19:03.971Z,97319.28
2023-05-06T16:21:30.662Z,97309.69
2023-05-06T16:23:57.393Z,97312.66
2023-05-06T16:26:24.720Z,97310.13
2023-05-06T16:28:51.550Z,97314.72
2023-05-06T16:31:18.291Z,97291.19
2023-05-06T16:33:45.176Z,97310.66
2023-05-06T16:36:12.587Z,97310.97
2023-05-06T16:38:39.303Z,97313.94
2023-05-06T16:41:06.145Z,97306.59
2023-05-06T16:43:32.703Z,97315.50
2023-05-06T16:46:00.353Z,97319.41
2023-05-06T16:48:27.210Z,97314.00
2023-05-06T16:50:53.826Z,97318.06
2023-05-06T16:53:24.869Z,97309.94
2023-05-06T16:55:51.856Z,97312.41
2023-05-06T16:58:18.491Z,97315.81
2023-05-06T17:00:45.349Z,97323.25
2023-05-06T17:03:12.443Z,97324.63
2023-05-06T17:05:39.188Z,97322.41
2023-05-06T17:08:06.908Z,97313.78
2023-05-06T17:10:33.780Z,97302.03
2023-05-06T17:13:00.701Z,97318.97
2023-05-06T17:15:27.386Z,97323.84
2023-05-06T17:17:54.462Z,97318.78
2023-05-06T17:20:21.245Z,97323.28
2023-05-06T17:22:48.036Z,97325.28
2023-05-06T17:25:15.604Z,97307.50
2023-05-06T17:27:42.360Z,97321.00
2023-05-06T17:30:12.422Z,97323.59
2023-05-06T17:32:40.322Z,97309.81
2023-05-06T17:35:07.707Z,97323.16
2023-05-06T17:37:34.878Z,97316.59
2023-05-06T17:40:02.325Z,97327.56
2023-05-06T17:42:30.027Z,97324.22
2023-05-06T17:44:56.736Z,97327.00
2023-05-06T17:47:23.753Z,97331.66
2023-05-06T17:49:52.908Z,97326.72
2023-05-06T17:52:20.141Z,97329.75
2023-05-06T17:54:57.113Z,97331.19
2023-05-06T17:57:34.029Z,97340.56
2023-05-06T18:00:00.844Z,97342.50
2023-05-06T18:02:27.565Z,97351.69
2023-05-06T18:04:54.393Z,97344.09
2023-05-06T18:07:21.258Z,97351.69
2023-05-06T18:09:52.372Z,97349.09
2023-05-06T18:12:20.112Z,97349.41
2023-05-06T18:14:47.946Z,97352.00
2023-05-06T18:17:14.668Z,97365.69
2023-05-06T18:19:41.440Z,97357.66
2023-05-06T18:22:08.087Z,97368.91
2023-05-06T18:24:34.734Z,97368.63
2023-05-06T18:27:02.350Z,97371.50
2023-05-06T18:29:30.503Z,97383.59
2023-05-06T18:31:57.383Z,97375.22
2023-05-06T18:34:24.048Z,97385.69
2023-05-06T18:36:50.883Z,97388.41
2023-05-06T18:39:17.557Z,97387.28
2023-05-06T18:41:44.498Z,97388.41
2023-05-06T18:44:12.282Z,97386.47
2023-05-06T18:46:38.936Z,97388.88
2023-05-06T18:49:05.900Z,97392.09
2023-05-06T18:51:32.796Z,97397.25
2023-05-06T18:53:59.532Z,97392.78
2023-05-06T18:56:26.214Z,97407.09
2023-05-06T18:58:53.028Z,97407.28
2023-05-06T19:01:19.703Z,97404.38
2023-05-06T19:03:46.899Z,97405.66
2023-05-06T19:06:13.735Z,97399.22
2023-05-06T19:08:40.816Z,97400.66
2023-05-06T19:11:14.516Z,97411.28
2023-05-06T19:13:43.464Z,97402.13
2023-05-06T19:16:10.175Z,97382.81
2023-05-06T19:18:37.086Z,97404.69
2023-05-06T19:21:03.901Z,97389.91
2023-05-06T19:23:32.142Z,97401.63
2023-05-06T19:25:58.846Z,97401.00
2023-05-06T19:28:25.577Z,97410.50
2023-05-06T19:30:52.500Z,97400.19
2023-05-06T19:33:19.344Z,97408.41
2023-05-06T19:35:46.151Z,97414.66
2023-05-06T19:38:12.870Z,97401.47
2023-05-06T19:40:39.716Z,97411.59
2023-05-06T19:43:06.311Z,97414.34
2023-05-06T19:45:34.138Z,97407.28
2023-05-06T19:48:04.186Z,97407.13
2023-05-06T19:50:33.285Z,97398.25
2023-05-06T19:52:59.916Z,97407.59
2023-05-06T19:55:26.746Z,97397.91
2023-05-06T19:57:56.967Z,97407.25
2023-05-06T20:00:25.457Z,97397.09
2023-05-06T20:02:52.397Z,97398.84
2023-05-06T20:05:19.246Z,97401.88
2023-05-06T20:07:46.127Z,97406.53
2023-05-06T20:10:13.742Z,97386.72
2023-05-06T20:12:43.493Z,97404.72
2023-05-06T20:15:10.618Z,97403.75
2023-05-06T20:17:37.505Z,97391.81
2023-05-06T20:20:09.669Z,97396.91
2023-05-06T20:22:40.438Z,97385.94
2023-05-06T20:25:09.529Z,97390.22
2023-05-06T20:27:36.462Z,97395.00
2023-05-06T20:30:03.461Z,97403.47
2023-05-06T20:32:31.318Z,97395.09
2023-05-06T20:34:58.354Z,97391.19
2023-05-06T20:37:25.793Z,97393.44
2023-05-06T20:39:52.479Z,97396.59
2023-05-06T20:42:19.073Z,97406.50
2023-05-06T20:44:45.877Z,97400.97
2023-05-06T20:47:12.814Z,97402.41
2023-05-06T20:49:39.878Z,97403.66
2023-05-06T20:52:07.937Z,97399.94
2023-05-06T20:54:34.850Z,97406.81
2023-05-06T20:57:02.571Z,97399.06
2023-05-06T20:59:29.734Z,97393.88
2023-05-06T21:01:56.706Z,97396.81
2023-05-06T21:04:23.408Z,97405.19
2023-05-06T21:06:50.413Z,97414.28
2023-05-06T21:09:18.339Z,97414.91
2023-05-06T21:11:45.308Z,97411.78
2023-05-06T21:14:12.808Z,97418.53
2023-05-06T21:16:40.582Z,97415.59
2023-05-06T21:19:07.612Z,97417.31
2023-05-06T21:21:34.793Z,97422.16
2023-05-06T21:24:01.707Z,97421.97
2023-05-06T21:26:30.334Z,97411.63
2023-05-06T21:28:57.190Z,97432.38
2023-05-06T21:31:25.243Z,97429.75
2023-05-06T21:33:55.307Z,97432.28
2023-05-06T21:36:22.137Z,97422.50
2023-05-06T21:39:00.969Z,97423.31
2023-05-06T21:41:28.425Z,97425.22
2023-05-06T21:43:55.144Z,97416.94
2023-05-06T21:46:21.804Z,97419.38
2023-05-06T21:48:48.671Z,97419.06
2023-05-06T21:51:15.306Z,97409.88
2023-05-06T21:53:41.868Z,97423.09
2023-05-06T21:56:08.592Z,97406.56
2023-05-06T21:58:35.196Z,97415.44
2023-05-06T22:01:01.773Z,97415.44
2023-05-06T22:03:28.809Z,97426.63
2023-05-06T22:05:55.668Z,97421.50
2023-05-06T22:08:22.309Z,97420.88
2023-05-06T22:10:49.421Z,97415.25
2023-05-06T22:13:16.526Z,97416.84
2023-05-06T22:15:43.467Z,97422.78
2023-05-06T22:18:10.449Z,97423.47
2023-05-06T22:20:37.600Z,97417.84
2023-05-06T22:23:04.372Z,97417.53
2023-05-06T22:25:31.624Z,97417.72
2023-05-06T22:27:58.267Z,97416.03
2023-05-06T22:30:24.976Z,97419.97
2023-05-06T22:32:51.662Z,97421.06
2023-05-06T22:35:18.456Z,97426.50
2023-05-06T22:37:45.526Z,97412.41
2023-05-06T22:40:12.915Z,97408.97
2023-05-06T22:42:39.659Z,97410.09
2023-05-06T22:45:07.073Z,97418.97
2023-05-06T22:47:33.896Z,97415.72
2023-05-06T22:50:01.371Z,97421.19
2023-05-06T22:52:27.937Z,97414.41
2023-05-06T22:54:54.945Z,97418.25
2023-05-06T22:57:23.309Z,97408.28
2023-05-06T22:59:49.956Z,97408.88
2023-05-06T23:02:16.948Z,97411.28
2023-05-06T23:04:43.616Z,97402.94
2023-05-06T23:07:10.306Z,97406.50
2023-05-06T23:09:36.939Z,97410.28
2023-05-06T23:12:03.885Z,97403.25
2023-05-06T23:14:30.454Z,97393.47
2023-05-06T23:16:57.237Z,97397.31
2023-05-06T23:19:24.095Z,97392.75
2023-05-06T23:21:50.675Z,97387.03
2023-05-06T23:24:17.514Z,97389.44
2023-05-06T23:26:44.176Z,97388.63
2023-05-06T23:29:10.831Z,97380.47
2023-05-06T23:31:37.557Z,97370.50
2023-05-06T23:34:04.638Z,97362.22
2023-05-06T23:36:31.209Z,97372.28
2023-05-06T23:38:58.121Z,97356.09
2023-05-06T23:41:24.847Z,97359.59
2023-05-06T23:43:51.406Z,97348.72
2023-05-06T23:46:18.114Z,97353.34
2023-05-06T23:48:44.754Z,97375.53
2023-05-06T23:51:11.365Z,97371.69
2023-05-06T23:53:38.309Z,97366.53
2023-05-06T23:56:05.449Z,97365.53
2023-05-06T23:58:32.054Z,97363.63
